Gales Creek, Oregon
Current Conditions -  °F | °C
As of 3:53 AM on Monday 20 Oct 2014 (Local Time) from KHIO Reporting Station
Overcast Overcast  
Wind Chill: 60°   Ceiling: 4900
Heat Index: 60°   Visibility: 10mi
Dew Point: 56°   Wind: 5mph
Humidity: 86%   Direction: 200°SSW
Pressure: 29.73"   Gusts: NA
Location:  45.59°N, 123.21°W
Report Text: KHIO 201053Z AUTO 20004KT 10SM SCT041 OVC049 16/13 A2973 RMK AO2 RAE03B42E51 SLP064 P0000 T01560133 TSNO
Loading
Personal Weather Stations






























Interactive Weather Map
Tropical Storm Tracking
New forecast layout! Learn more

10-Day Weather Forecast

Advertisements
Track Severe Weather on mobile